Time;durP1;ratioP1;P1;durP2;ratioP2;P2;SDS_P1;SDS_P2;PMS_P1;PMS_P2;Temp;Humidity;BMP_temperature;BMP_pressure;BME280_temperature;BME280_humidity;BME280_pressure;Samples;Min_cycle;Max_cycle;Signal;HPM_P1;HPM_P2
2021/05/26 00:00:54;;;;;;;5.47;1.50;;;384.80;2329.60;;;;;;5033928;28;20045;-69
2021/05/26 00:03:21;;;;;;;3.33;1.40;;;384.80;2329.60;;;;;;5033951;28;20049;-68
2021/05/26 00:05:48;;;;;;;3.55;1.50;;;384.80;2329.60;;;;;;5033885;28;20026;-68
2021/05/26 00:08:24;;;;;;;3.72;1.50;;;384.80;2329.60;;;;;;5033566;28;20060;-69
2021/05/26 00:10:50;;;;;;;4.63;1.40;;;384.70;2329.60;;;;;;5031637;28;20029;-68
2021/05/26 00:13:15;;;;;;;3.80;1.40;;;384.70;2329.60;;;;;;5010709;28;20040;-68
2021/05/26 00:15:41;;;;;;;3.38;1.30;;;384.70;2329.60;;;;;;5027515;28;20057;-69
2021/05/26 00:18:07;;;;;;;4.95;1.73;;;384.70;2329.60;;;;;;5029772;28;20018;-69
2021/05/26 00:20:32;;;;;;;6.10;1.80;;;384.60;2329.60;;;;;;5033361;28;20052;-68
2021/05/26 00:22:58;;;;;;;3.72;1.80;;;384.60;2329.60;;;;;;5033099;28;20090;-68
2021/05/26 00:25:24;;;;;;;4.53;2.20;;;384.60;2329.60;;;;;;5033241;28;20465;-69
2021/05/26 00:27:57;;;;;;;6.40;2.20;;;384.60;2329.60;;;;;;5033427;28;20030;-69
2021/05/26 00:30:23;;;;;;;5.00;2.00;;;384.50;2329.60;;;;;;5033188;28;20071;-69
2021/05/26 00:32:49;;;;;;;3.67;1.88;;;384.50;2329.60;;;;;;5029775;28;20028;-68
2021/05/26 00:35:14;;;;;;;6.43;2.22;;;384.40;2329.60;;;;;;5020615;28;20014;-68
2021/05/26 00:37:40;;;;;;;5.90;2.28;;;384.40;2329.60;;;;;;5033263;28;20507;-68
2021/05/26 00:40:06;;;;;;;4.63;2.10;;;384.30;2329.60;;;;;;5032869;28;20446;-68
2021/05/26 00:42:32;;;;;;;5.63;2.08;;;384.30;2329.60;;;;;;5033307;28;20479;-68
2021/05/26 00:44:58;;;;;;;3.95;2.20;;;384.20;2329.60;;;;;;5033034;28;20103;-68
2021/05/26 00:47:42;;;;;;;3.45;2.08;;;384.10;2329.60;;;;;;5032772;28;20420;-69
2021/05/26 00:50:11;;;;;;;3.80;2.05;;;384.10;2329.60;;;;;;5032046;28;20025;-68
2021/05/26 00:52:37;;;;;;;3.90;1.60;;;384.10;2329.60;;;;;;5016274;28;20026;-69
2021/05/26 00:55:07;;;;;;;3.05;1.30;;;384.00;2329.60;;;;;;5026043;28;20033;-68
2021/05/26 00:57:33;;;;;;;4.32;1.60;;;384.00;2329.60;;;;;;5033096;28;20026;-71
2021/05/26 00:59:59;;;;;;;4.07;1.40;;;384.00;2329.60;;;;;;5032774;28;20063;-71
2021/05/26 01:02:24;;;;;;;3.40;1.45;;;384.00;2329.60;;;;;;5032568;28;20431;-69
2021/05/26 01:04:50;;;;;;;2.65;1.50;;;384.00;2329.60;;;;;;5032655;28;20037;-69
2021/05/26 01:07:16;;;;;;;4.18;1.30;;;359.30;2329.60;;;;;;5032393;28;20025;-68
2021/05/26 01:09:42;;;;;;;4.07;1.45;;;359.30;2329.60;;;;;;5032894;28;20028;-70
2021/05/26 01:12:08;;;;;;;4.18;1.33;;;359.20;2329.60;;;;;;5009094;28;20050;-70
2021/05/26 01:14:34;;;;;;;4.00;1.40;;;359.20;2329.60;;;;;;5024607;28;20550;-70
2021/05/26 01:17:00;;;;;;;3.13;1.73;;;359.20;2329.60;;;;;;5032423;28;20053;-69
2021/05/26 01:19:26;;;;;;;2.88;1.30;;;359.20;2329.60;;;;;;5019447;28;20056;-68
2021/05/26 01:21:53;;;;;;;3.15;1.35;;;359.20;2329.60;;;;;;5032486;28;20053;-69
2021/05/26 01:24:19;;;;;;;2.58;1.30;;;359.10;2329.60;;;;;;5032081;28;20396;-69
2021/05/26 01:26:47;;;;;;;4.00;1.67;;;359.20;2329.60;;;;;;5032186;28;20083;-69
2021/05/26 01:29:16;;;;;;;3.83;1.75;;;359.20;2329.60;;;;;;5032198;28;20022;-69
2021/05/26 01:31:43;;;;;;;3.10;1.90;;;359.20;2329.60;;;;;;5032372;28;20021;-69
2021/05/26 01:34:09;;;;;;;4.35;2.10;;;359.20;2329.60;;;;;;5004696;28;20528;-68
2021/05/26 01:36:35;;;;;;;3.30;1.63;;;359.20;2329.60;;;;;;5032128;28;20112;-68
2021/05/26 01:39:05;;;;;;;3.17;1.80;;;359.20;2329.60;;;;;;5031946;28;20079;-69
2021/05/26 01:41:31;;;;;;;3.10;1.80;;;359.20;2329.60;;;;;;5032261;28;20480;-68
2021/05/26 01:43:57;;;;;;;4.90;1.80;;;359.20;2329.60;;;;;;5031841;28;20032;-68
2021/05/26 01:46:23;;;;;;;3.33;1.77;;;359.20;2329.60;;;;;;5014454;28;20030;-68
2021/05/26 01:48:50;;;;;;;4.50;1.70;;;359.20;2329.60;;;;;;5031944;28;20028;-69
2021/05/26 01:51:17;;;;;;;3.38;1.60;;;359.20;2329.60;;;;;;5032248;28;20037;-68
2021/05/26 01:53:43;;;;;;;2.58;1.33;;;359.20;2329.60;;;;;;5022749;28;20503;-68
2021/05/26 01:56:21;;;;;;;2.75;1.60;;;359.20;2329.60;;;;;;5031861;28;20037;-68
2021/05/26 01:58:52;;;;;;;2.30;1.40;;;359.20;2329.60;;;;;;5032020;28;20021;-68
2021/05/26 02:01:18;;;;;;;2.03;1.30;;;359.20;2329.60;;;;;;5031802;28;20109;-68
2021/05/26 02:03:45;;;;;;;2.47;1.30;;;359.20;2329.60;;;;;;5036010;28;20032;-68
2021/05/26 02:06:12;;;;;;;2.28;1.20;;;359.20;2329.60;;;;;;5035618;28;20028;-69
2021/05/26 02:08:39;;;;;;;3.10;1.20;;;359.20;2329.60;;;;;;5035920;28;20071;-69
2021/05/26 02:13:49;;;;;;;2.55;1.30;;;359.20;2329.60;;;;;;5031650;28;20075;-69
2021/05/26 02:16:15;;;;;;;2.25;1.23;;;359.20;2329.60;;;;;;5027577;28;20022;-68
2021/05/26 02:18:40;;;;;;;2.45;1.15;;;359.20;2329.60;;;;;;5025715;28;20038;-69
2021/05/26 02:21:06;;;;;;;3.33;1.20;;;359.20;2329.60;;;;;;5035425;28;20021;-68
2021/05/26 02:23:32;;;;;;;1.85;1.10;;;359.20;2329.60;;;;;;5035531;28;20014;-68
2021/05/26 02:25:58;;;;;;;3.55;1.10;;;359.10;2329.60;;;;;;5035373;28;20083;-70
2021/05/26 02:28:24;;;;;;;3.42;1.30;;;359.20;2329.60;;;;;;5035474;28;20057;-68
2021/05/26 02:30:50;;;;;;;3.05;1.25;;;359.20;2329.60;;;;;;5035500;28;20026;-68
2021/05/26 02:33:16;;;;;;;2.40;1.30;;;359.20;2329.60;;;;;;5035220;28;20033;-68
2021/05/26 02:35:41;;;;;;;3.38;1.20;;;359.20;2329.60;;;;;;5035413;28;20048;-69
2021/05/26 02:38:07;;;;;;;2.97;1.20;;;359.20;2329.60;;;;;;5035350;28;20068;-69
2021/05/26 02:40:33;;;;;;;4.93;1.30;;;359.20;2329.60;;;;;;5035238;28;20491;-69
2021/05/26 02:43:02;;;;;;;2.40;1.30;;;359.20;2329.60;;;;;;5035076;28;20030;-69
2021/05/26 02:45:28;;;;;;;2.65;1.30;;;359.20;2329.60;;;;;;5035124;28;20434;-68
2021/05/26 02:47:54;;;;;;;2.30;1.30;;;359.20;2329.60;;;;;;5035065;28;20030;-69
2021/05/26 02:50:20;;;;;;;2.15;1.20;;;359.20;2329.60;;;;;;5034881;28;20045;-68
2021/05/26 02:52:46;;;;;;;3.78;1.30;;;359.20;2329.60;;;;;;5030815;28;20511;-68
2021/05/26 02:55:13;;;;;;;3.10;1.42;;;359.20;2329.60;;;;;;5034991;28;20028;-69
2021/05/26 02:57:39;;;;;;;3.78;1.40;;;359.30;2329.60;;;;;;5034843;28;20037;-68
2021/05/26 03:00:07;;;;;;;3.65;1.40;;;359.30;2329.60;;;;;;5034848;28;20075;-68
2021/05/26 03:02:33;;;;;;;4.93;1.38;;;359.30;2329.60;;;;;;5035071;28;20480;-68
2021/05/26 03:04:58;;;;;;;2.90;1.20;;;359.30;2329.60;;;;;;5034969;28;20144;-68
2021/05/26 03:07:24;;;;;;;3.03;1.40;;;359.30;2329.60;;;;;;5034610;28;20037;-68
2021/05/26 03:09:50;;;;;;;2.83;1.60;;;359.30;2329.60;;;;;;5034711;28;20017;-70
2021/05/26 03:12:16;;;;;;;4.13;1.83;;;384.00;2329.60;;;;;;5009324;28;20484;-69
2021/05/26 03:14:41;;;;;;;4.97;2.10;;;384.00;2329.60;;;;;;5006308;28;20022;-70
2021/05/26 03:17:07;;;;;;;3.40;2.25;;;384.00;2329.60;;;;;;5034572;28;20033;-69
2021/05/26 03:19:33;;;;;;;3.88;2.10;;;384.10;2329.60;;;;;;5030536;28;20021;-69
2021/05/26 03:21:59;;;;;;;6.18;2.20;;;384.10;2329.60;;;;;;5034361;28;20057;-70
2021/05/26 03:24:25;;;;;;;4.00;2.30;;;384.10;2329.60;;;;;;5034410;28;20110;-69
2021/05/26 03:26:51;;;;;;;4.88;2.70;;;384.10;2329.60;;;;;;5034120;28;20490;-69
2021/05/26 03:29:17;;;;;;;3.33;2.30;;;384.10;2329.60;;;;;;5034350;28;20018;-70
2021/05/26 03:31:43;;;;;;;4.85;2.42;;;384.20;2329.60;;;;;;5034130;28;20030;-69
2021/05/26 03:34:08;;;;;;;4.97;2.13;;;384.30;2329.60;;;;;;5034313;28;20387;-68
2021/05/26 03:36:40;;;;;;;5.22;2.20;;;384.40;2329.60;;;;;;5034037;28;20030;-68
2021/05/26 03:39:10;;;;;;;4.72;2.38;;;384.40;2329.60;;;;;;4996870;28;20022;-68
2021/05/26 03:41:36;;;;;;;3.67;1.92;;;384.40;2329.60;;;;;;5027905;28;20480;-68
2021/05/26 03:44:02;;;;;;;4.25;2.00;;;384.40;2329.60;;;;;;5033882;28;20051;-69
2021/05/26 03:46:28;;;;;;;3.75;1.88;;;384.40;2329.60;;;;;;5034022;28;20109;-68
2021/05/26 03:48:54;;;;;;;3.58;1.40;;;384.40;2329.60;;;;;;5033913;28;20048;-68
2021/05/26 03:51:20;;;;;;;2.35;1.38;;;384.40;2329.60;;;;;;5033993;28;20021;-68
2021/05/26 03:53:45;;;;;;;2.78;1.40;;;384.50;2329.60;;;;;;5029280;28;20032;-69
2021/05/26 03:56:11;;;;;;;2.83;1.35;;;384.50;2329.60;;;;;;5034030;28;20018;-69
2021/05/26 03:58:37;;;;;;;3.03;1.50;;;384.50;2329.60;;;;;;5033892;28;20423;-68
2021/05/26 04:01:06;;;;;;;2.33;1.40;;;384.50;2329.60;;;;;;5033856;28;20551;-68
2021/05/26 04:03:31;;;;;;;2.45;1.40;;;384.60;2329.60;;;;;;5033826;28;20033;-69
2021/05/26 04:05:57;;;;;;;3.08;1.30;;;384.70;2329.60;;;;;;5033521;28;20017;-68
2021/05/26 04:08:23;;;;;;;3.25;1.35;;;384.60;2329.60;;;;;;5033701;28;20508;-68
2021/05/26 04:10:49;;;;;;;2.78;1.25;;;384.70;2329.60;;;;;;5031613;28;20156;-68
2021/05/26 04:13:15;;;;;;;3.30;1.50;;;384.90;2329.60;;;;;;5010291;28;20434;-69
2021/05/26 04:15:41;;;;;;;2.40;1.20;;;409.70;2355.20;;;;;;5026680;28;20092;-68
2021/05/26 04:18:08;;;;;;;3.05;1.40;;;409.90;2355.20;;;;;;5029394;28;20030;-68
2021/05/26 04:20:35;;;;;;;2.97;1.45;;;410.10;2355.20;;;;;;5033548;28;20472;-68
2021/05/26 04:23:01;;;;;;;3.38;1.63;;;410.30;2355.20;;;;;;5033112;28;20187;-68
2021/05/26 04:25:27;;;;;;;2.88;1.30;;;410.50;2355.20;;;;;;5032344;28;20021;-69
2021/05/26 04:27:53;;;;;;;3.28;1.38;;;410.50;2355.20;;;;;;5033176;28;20037;-67
2021/05/26 04:30:19;;;;;;;2.28;1.30;;;435.30;2355.20;;;;;;5033276;28;20024;-68
2021/05/26 04:32:45;;;;;;;2.60;1.35;;;435.40;2355.20;;;;;;5033409;28;20041;-68
2021/05/26 04:35:12;;;;;;;4.85;1.50;;;435.40;2355.20;;;;;;5033543;28;20111;-68
2021/05/26 04:37:37;;;;;;;4.80;1.60;;;435.40;2355.20;;;;;;5033055;28;20036;-69
2021/05/26 04:40:04;;;;;;;2.88;1.50;;;435.40;2355.20;;;;;;5032926;28;20025;-69
2021/05/26 04:42:30;;;;;;;3.30;1.45;;;435.30;2355.20;;;;;;5032950;28;20104;-70
2021/05/26 04:44:56;;;;;;;2.90;1.70;;;435.40;2355.20;;;;;;5032918;28;20451;-69
2021/05/26 04:47:22;;;;;;;3.35;1.80;;;435.60;2355.20;;;;;;5032790;28;20466;-69
2021/05/26 04:49:48;;;;;;;4.03;1.80;;;435.60;2355.20;;;;;;5032884;28;20024;-69
2021/05/26 04:52:13;;;;;;;3.00;1.80;;;435.70;2355.20;;;;;;5028278;28;20025;-69
2021/05/26 04:54:39;;;;;;;2.55;1.50;;;435.80;2355.20;;;;;;5032745;28;20484;-69
2021/05/26 04:57:05;;;;;;;3.38;1.58;;;435.90;2355.20;;;;;;5032614;28;20083;-69
2021/05/26 04:59:31;;;;;;;4.72;1.60;;;460.80;2380.80;;;;;;5033017;28;20029;-69
2021/05/26 05:01:57;;;;;;;3.83;1.40;;;436.10;2355.20;;;;;;5032522;28;20033;-71
2021/05/26 05:04:22;;;;;;;2.58;1.38;;;460.80;2380.80;;;;;;5032543;28;20071;-68
2021/05/26 05:06:48;;;;;;;3.03;1.45;;;461.00;2380.80;;;;;;5032465;28;20362;-69
2021/05/26 05:09:14;;;;;;;2.80;1.58;;;461.00;2380.80;;;;;;5032606;28;20063;-69
2021/05/26 05:11:40;;;;;;;3.33;1.50;;;461.20;2380.80;;;;;;5016855;28;20038;-69
2021/05/26 05:14:06;;;;;;;3.53;1.40;;;461.00;2380.80;;;;;;5016447;28;20030;-67
2021/05/26 05:16:34;;;;;;;2.72;1.40;;;460.90;2380.80;;;;;;5032761;28;20404;-71
2021/05/26 05:19:00;;;;;;;4.97;1.70;;;460.90;2380.80;;;;;;5028854;28;20030;-70
2021/05/26 05:21:26;;;;;;;5.38;1.73;;;460.90;2380.80;;;;;;5025157;28;20041;-71
2021/05/26 05:23:52;;;;;;;3.10;1.58;;;460.90;2380.80;;;;;;5012130;28;20374;-69
2021/05/26 05:26:18;;;;;;;3.00;1.70;;;460.80;2380.80;;;;;;5005976;28;20030;-69
2021/05/26 05:28:44;;;;;;;3.67;1.80;;;460.90;2380.80;;;;;;4992878;28;20026;-68
2021/05/26 05:31:09;;;;;;;3.42;1.70;;;461.10;2380.80;;;;;;4994844;28;20097;-67
2021/05/26 05:33:35;;;;;;;5.00;1.67;;;461.20;2380.80;;;;;;4996581;28;20101;-69
2021/05/26 05:36:01;;;;;;;4.75;1.80;;;461.40;2380.80;;;;;;4994241;28;20022;-70
2021/05/26 05:38:27;;;;;;;4.80;1.70;;;461.60;2380.80;;;;;;4995145;28;20014;-70
2021/05/26 05:40:53;;;;;;;3.92;1.80;;;486.50;2380.80;;;;;;5012302;28;20036;-70
2021/05/26 05:43:19;;;;;;;3.38;1.60;;;486.80;2380.80;;;;;;5012604;28;20149;-70
2021/05/26 05:45:44;;;;;;;3.22;1.65;;;487.10;2380.80;;;;;;5011819;28;20488;-71
2021/05/26 05:48:10;;;;;;;3.95;1.75;;;487.30;2380.80;;;;;;5011900;28;20030;-68
2021/05/26 05:50:36;;;;;;;5.15;1.60;;;512.10;2355.20;;;;;;5012094;28;20018;-72
2021/05/26 05:53:04;;;;;;;3.45;1.58;;;512.40;2329.60;;;;;;5011241;28;21278;-72
2021/05/26 05:55:30;;;;;;;3.63;1.58;;;512.40;2304.00;;;;;;5011714;28;20477;-72
2021/05/26 05:58:01;;;;;;;3.50;1.40;;;512.40;2304.00;;;;;;5012351;28;20026;-70
2021/05/26 06:00:27;;;;;;;3.78;1.40;;;512.40;2278.40;;;;;;4994167;28;20076;-71
2021/05/26 06:02:52;;;;;;;2.90;1.50;;;512.40;2278.40;;;;;;5011729;28;20500;-71
2021/05/26 06:05:18;;;;;;;2.33;1.45;;;512.60;2278.40;;;;;;5011821;28;20057;-72
2021/05/26 06:07:44;;;;;;;3.88;1.65;;;512.80;2278.40;;;;;;5011827;28;20120;-74
2021/05/26 06:10:10;;;;;;;3.83;1.40;;;512.90;2252.80;;;;;;5011958;28;20022;-74
2021/05/26 06:12:36;;;;;;;2.85;1.50;;;512.90;2227.20;;;;;;4996926;28;20049;-72
2021/05/26 06:15:04;;;;;;;3.65;1.45;;;512.90;2252.80;;;;;;4996809;28;20481;-71
2021/05/26 06:17:29;;;;;;;4.72;1.50;;;537.60;2201.60;;;;;;4991637;28;20033;-70
2021/05/26 06:19:55;;;;;;;2.50;1.48;;;512.90;2201.60;;;;;;4999178;28;20022;-69
2021/05/26 06:22:21;;;;;;;3.60;1.50;;;512.30;2201.60;;;;;;5006040;28;20054;-70
2021/05/26 06:24:47;;;;;;;3.85;1.55;;;512.40;2201.60;;;;;;5010334;28;20037;-71
2021/05/26 06:27:13;;;;;;;3.22;1.60;;;512.80;2227.20;;;;;;4994847;28;20540;-71
2021/05/26 06:29:39;;;;;;;2.70;1.40;;;512.90;2176.00;;;;;;5005030;28;20022;-69
2021/05/26 06:32:05;;;;;;;3.05;1.65;;;512.90;2124.80;;;;;;5012089;28;20388;-70
2021/05/26 06:34:31;;;;;;;2.65;1.50;;;512.80;2150.40;;;;;;5010709;28;20032;-70
2021/05/26 06:36:56;;;;;;;3.25;2.20;;;512.80;2124.80;;;;;;5011834;28;20022;-70
2021/05/26 06:39:22;;;;;;;3.00;1.60;;;512.50;2150.40;;;;;;5012286;28;20030;-71
2021/05/26 06:41:48;;;;;;;3.33;1.48;;;512.50;2124.80;;;;;;5011509;28;20030;-70
2021/05/26 06:44:14;;;;;;;2.60;1.30;;;512.30;2073.60;;;;;;5011901;28;20026;-70
2021/05/26 06:46:40;;;;;;;3.10;1.50;;;512.70;2073.60;;;;;;5011564;28;20030;-70
2021/05/26 06:49:06;;;;;;;4.15;1.42;;;512.70;2048.00;;;;;;5013048;28;20022;-69
2021/05/26 06:51:32;;;;;;;3.85;1.50;;;512.70;2022.40;;;;;;5003658;28;20478;-70
2021/05/26 06:53:58;;;;;;;3.38;1.50;;;512.90;2022.40;;;;;;5000044;28;20018;-70
2021/05/26 06:56:24;;;;;;;3.45;1.60;;;512.90;1996.80;;;;;;4997593;28;20034;-70
2021/05/26 06:58:50;;;;;;;3.13;1.50;;;537.80;1996.80;;;;;;4998284;28;20538;-70
2021/05/26 07:01:15;;;;;;;3.38;1.50;;;538.00;1996.80;;;;;;4996580;28;20030;-70
2021/05/26 07:03:41;;;;;;;3.47;1.50;;;538.30;1996.80;;;;;;5006223;28;20029;-70
2021/05/26 07:06:07;;;;;;;2.72;1.48;;;538.30;1971.20;;;;;;5014261;28;20026;-70
2021/05/26 07:08:33;;;;;;;3.22;1.50;;;538.30;1971.20;;;;;;5014516;28;20073;-70
2021/05/26 07:10:59;;;;;;;3.30;1.42;;;538.20;1945.60;;;;;;5014725;28;20468;-70
2021/05/26 07:13:25;;;;;;;4.05;1.50;;;538.00;1945.60;;;;;;5014390;28;20025;-71
2021/05/26 07:15:51;;;;;;;3.47;1.40;;;538.20;1945.60;;;;;;5014244;28;20097;-71
2021/05/26 07:18:17;;;;;;;4.00;1.40;;;538.10;1971.20;;;;;;5007048;28;20384;-70
2021/05/26 07:20:45;;;;;;;3.38;1.40;;;538.30;1945.60;;;;;;4995929;28;20422;-71
2021/05/26 07:23:12;;;;;;;3.97;1.50;;;538.40;1945.60;;;;;;5000653;28;20108;-77
2021/05/26 07:25:38;;;;;;;4.43;1.70;;;563.30;2022.40;;;;;;5013209;28;20634;-74
2021/05/26 07:28:04;;;;;;;3.15;1.50;;;563.50;1996.80;;;;;;5005199;28;20034;-73
2021/05/26 07:30:30;;;;;;;2.80;1.60;;;563.50;1971.20;;;;;;5002653;28;20029;-70
2021/05/26 07:32:56;;;;;;;3.00;1.45;;;563.50;1971.20;;;;;;5014808;28;20080;-73
2021/05/26 07:35:22;;;;;;;2.88;1.50;;;563.40;1996.80;;;;;;5000977;28;20022;-71
2021/05/26 07:37:48;;;;;;;3.13;1.67;;;563.60;1920.00;;;;;;5004803;28;20026;-69
2021/05/26 07:40:14;;;;;;;2.90;1.52;;;563.50;1868.80;;;;;;5014084;28;20057;-69
2021/05/26 07:42:42;;;;;;;3.17;1.50;;;563.30;1894.40;;;;;;5011458;28;20026;-71
2021/05/26 07:45:09;;;;;;;3.13;1.40;;;563.30;1894.40;;;;;;5013737;28;20084;-76
2021/05/26 07:47:35;;;;;;;2.92;1.50;;;563.30;1920.00;;;;;;5013031;28;20408;-69
2021/05/26 07:50:01;;;;;;;2.78;1.45;;;563.70;1945.60;;;;;;5013933;28;20033;-69
2021/05/26 07:52:28;;;;;;;4.10;1.40;;;563.70;1868.80;;;;;;5013689;28;20017;-70
2021/05/26 07:54:54;;;;;;;3.72;1.50;;;563.80;1920.00;;;;;;5013913;28;20025;-69
2021/05/26 07:57:20;;;;;;;3.00;1.55;;;563.80;1868.80;;;;;;5013677;28;20025;-68
2021/05/26 07:59:46;;;;;;;3.38;1.60;;;564.00;1894.40;;;;;;5013654;28;20029;-71
2021/05/26 08:02:12;;;;;;;3.10;1.55;;;564.10;1868.80;;;;;;5014144;28;20034;-70
2021/05/26 08:04:39;;;;;;;3.80;1.65;;;588.80;1843.20;;;;;;5013688;28;20029;-70
2021/05/26 08:07:05;;;;;;;4.20;1.67;;;564.10;1868.80;;;;;;5013266;28;20036;-70
2021/05/26 08:09:30;;;;;;;2.97;1.55;;;588.90;1868.80;;;;;;5013541;28;20133;-70
2021/05/26 08:11:56;;;;;;;2.90;1.60;;;589.10;1843.20;;;;;;5013838;28;20050;-70
2021/05/26 08:14:23;;;;;;;4.93;1.77;;;589.10;1843.20;;;;;;5013761;28;20018;-70
2021/05/26 08:16:50;;;;;;;3.05;1.60;;;589.00;1817.60;;;;;;5013620;28;20022;-70
2021/05/26 08:19:16;;;;;;;2.80;1.48;;;589.10;1817.60;;;;;;5013357;28;20029;-70
2021/05/26 08:21:43;;;;;;;2.58;1.50;;;589.20;1817.60;;;;;;5016493;28;20046;-70
2021/05/26 08:24:09;;;;;;;3.42;1.50;;;589.20;1817.60;;;;;;5010496;28;20035;-68
2021/05/26 08:26:35;;;;;;;3.13;1.65;;;589.20;1817.60;;;;;;5013123;28;20527;-71
2021/05/26 08:29:03;;;;;;;3.38;1.60;;;589.20;1792.00;;;;;;5033311;28;20104;-68
2021/05/26 08:31:30;;;;;;;2.50;1.48;;;588.80;1792.00;;;;;;5032852;28;20510;-68
2021/05/26 08:33:55;;;;;;;2.63;1.40;;;589.00;1843.20;;;;;;5033238;28;20030;-69
2021/05/26 08:36:21;;;;;;;3.22;1.50;;;588.90;1792.00;;;;;;5033136;28;20071;-68
2021/05/26 08:38:47;;;;;;;3.35;1.50;;;588.90;1843.20;;;;;;5032978;28;20484;-76
2021/05/26 08:41:15;;;;;;;4.35;2.20;;;589.10;1817.60;;;;;;5033048;28;20066;-78
2021/05/26 08:43:42;;;;;;;3.15;1.40;;;589.20;1817.60;;;;;;5032886;28;20028;-73
2021/05/26 08:46:09;;;;;;;4.28;1.60;;;589.20;1817.60;;;;;;5032859;28;20029;-75
2021/05/26 08:48:35;;;;;;;3.00;1.50;;;589.30;1792.00;;;;;;5032902;28;20111;-71
2021/05/26 08:51:02;;;;;;;4.95;1.70;;;589.40;1792.00;;;;;;5032833;28;20017;-70
2021/05/26 08:53:28;;;;;;;4.40;1.50;;;589.50;1766.40;;;;;;5028610;28;20027;-70
2021/05/26 08:55:55;;;;;;;3.10;1.50;;;589.40;1766.40;;;;;;5003642;28;20593;-72
2021/05/26 08:58:20;;;;;;;2.80;1.30;;;589.50;1766.40;;;;;;5004610;28;20033;-71
2021/05/26 09:00:47;;;;;;;3.00;1.40;;;589.60;1715.20;;;;;;5012739;28;20393;-70
2021/05/26 09:03:14;;;;;;;4.20;1.67;;;589.70;1715.20;;;;;;5000151;28;20104;-70
2021/05/26 09:05:40;;;;;;;4.47;2.97;;;589.70;1715.20;;;;;;4997804;28;20050;-75
2021/05/26 09:08:22;;;;;;;2.85;1.50;;;589.60;1715.20;;;;;;5006007;28;20062;-71
2021/05/26 09:10:57;;;;;;;3.38;1.40;;;589.70;1689.60;;;;;;5012372;28;20025;-70
2021/05/26 09:13:27;;;;;;;5.22;2.20;;;614.50;1689.60;;;;;;5011358;28;20013;-70
2021/05/26 09:15:53;;;;;;;2.83;1.50;;;614.60;1740.80;;;;;;5011007;28;20018;-71
2021/05/26 09:18:19;;;;;;;3.50;1.40;;;614.50;1715.20;;;;;;5013103;28;20109;-71
2021/05/26 09:20:45;;;;;;;3.40;1.40;;;589.70;1689.60;;;;;;5012826;28;20397;-70
2021/05/26 09:23:20;;;;;;;3.30;1.50;;;589.60;1715.20;;;;;;5012873;28;20058;-70
2021/05/26 09:25:46;;;;;;;3.67;1.50;;;589.50;1715.20;;;;;;5013174;28;20024;-70
2021/05/26 09:28:28;;;;;;;3.78;1.65;;;614.50;1740.80;;;;;;5012008;28;20033;-70
2021/05/26 09:30:56;;;;;;;3.13;1.60;;;614.70;1689.60;;;;;;5012282;28;20030;-70
2021/05/26 09:33:34;;;;;;;3.35;1.50;;;614.80;1689.60;;;;;;5012891;28;20017;-71
2021/05/26 09:36:14;;;;;;;3.58;1.50;;;615.00;1689.60;;;;;;5013164;28;20097;-70
2021/05/26 09:39:04;;;;;;;3.53;1.60;;;615.10;1664.00;;;;;;5012979;28;20026;-70
2021/05/26 09:41:36;;;;;;;3.10;1.50;;;615.00;1664.00;;;;;;5012824;28;20025;-72
2021/05/26 09:44:09;;;;;;;2.60;1.40;;;614.90;1638.40;;;;;;5012398;28;20086;-72
2021/05/26 09:46:37;;;;;;;3.38;1.55;;;614.80;1638.40;;;;;;5002894;28;20117;-72
2021/05/26 09:49:17;;;;;;;2.47;1.40;;;615.00;1715.20;;;;;;5011950;28;20033;-72
2021/05/26 09:51:45;;;;;;;3.35;1.50;;;614.80;1638.40;;;;;;5012125;28;20026;-69
2021/05/26 09:54:18;;;;;;;5.03;1.40;;;614.90;1689.60;;;;;;5012107;28;20542;-71
2021/05/26 09:56:46;;;;;;;3.65;1.48;;;614.70;1638.40;;;;;;5011938;28;20033;-71
2021/05/26 09:59:12;;;;;;;5.18;1.50;;;614.60;1612.80;;;;;;5011638;28;20524;-70
2021/05/26 10:01:39;;;;;;;2.97;1.50;;;614.60;1638.40;;;;;;5012390;28;20428;-70
2021/05/26 10:04:06;;;;;;;3.40;1.50;;;614.70;1612.80;;;;;;5012190;28;20025;-70
2021/05/26 10:06:34;;;;;;;5.30;1.67;;;614.80;1715.20;;;;;;5011999;28;20026;-68
2021/05/26 10:09:00;;;;;;;3.20;1.50;;;615.10;1664.00;;;;;;5012081;28;20400;-70
2021/05/26 10:11:32;;;;;;;2.67;1.40;;;615.20;1638.40;;;;;;5012258;28;20102;-70
2021/05/26 10:14:03;;;;;;;2.47;1.30;;;640.00;1638.40;;;;;;5012328;28;20372;-70
2021/05/26 10:16:32;;;;;;;2.95;1.40;;;615.20;1587.20;;;;;;5009792;28;20025;-69
2021/05/26 10:19:02;;;;;;;4.57;1.50;;;615.00;1664.00;;;;;;5012381;28;20076;-70
2021/05/26 10:21:29;;;;;;;3.88;1.35;;;615.30;1612.80;;;;;;5013575;28;20125;-70
2021/05/26 10:23:56;;;;;;;3.72;1.48;;;640.00;1612.80;;;;;;5014848;28;20121;-70
2021/05/26 10:26:47;;;;;;;3.33;1.50;;;640.20;1587.20;;;;;;5015486;28;20481;-72
2021/05/26 10:29:31;;;;;;;2.80;1.40;;;640.00;1612.80;;;;;;5035778;28;20036;-70
2021/05/26 10:31:58;;;;;;;2.65;1.40;;;640.10;1612.80;;;;;;5035710;28;20021;-71
2021/05/26 10:34:42;;;;;;;2.47;1.30;;;640.20;1612.80;;;;;;5035483;28;20861;-71
2021/05/26 10:37:13;;;;;;;2.50;1.45;;;640.20;1587.20;;;;;;5035414;28;20132;-70
2021/05/26 10:39:40;;;;;;;3.92;1.30;;;640.20;1561.60;;;;;;5035475;28;20420;-70
2021/05/26 10:42:24;;;;;;;3.70;1.50;;;640.30;1587.20;;;;;;5021559;28;20026;-71
2021/05/26 10:45:04;;;;;;;3.30;1.60;;;640.00;1587.20;;;;;;5035372;28;20022;-70
2021/05/26 10:47:36;;;;;;;3.92;1.40;;;615.30;1612.80;;;;;;5035546;28;20028;-70
2021/05/26 10:50:03;;;;;;;3.58;1.50;;;640.00;1587.20;;;;;;5030632;28;20040;-71
2021/05/26 10:52:29;;;;;;;2.80;1.30;;;615.30;1561.60;;;;;;5013506;28;20021;-75
2021/05/26 10:54:56;;;;;;;3.33;1.35;;;615.30;1612.80;;;;;;5015056;28;20486;-76
2021/05/26 10:57:21;;;;;;;3.47;1.55;;;615.30;1612.80;;;;;;5015185;28;20442;-77
2021/05/26 11:00:25;;;;;;;2.95;1.30;;;640.00;1612.80;;;;;;5014879;28;20033;-75
2021/05/26 11:03:29;;;;;;;3.17;1.40;;;640.00;1561.60;;;;;;5008166;28;20114;-71
2021/05/26 11:06:03;;;;;;;4.47;1.50;;;640.10;1612.80;;;;;;5014811;28;20084;-71
2021/05/26 11:08:47;;;;;;;4.20;1.52;;;640.20;1587.20;;;;;;5015199;28;21178;-70
2021/05/26 11:11:24;;;;;;;3.22;1.40;;;615.00;1587.20;;;;;;5014536;28;20022;-70
2021/05/26 11:14:14;;;;;;;2.50;1.30;;;615.30;1587.20;;;;;;5012864;28;20018;-75
2021/05/26 11:16:40;;;;;;;2.78;1.42;;;615.30;1587.20;;;;;;5013997;28;20080;-70
2021/05/26 11:19:23;;;;;;;4.97;1.60;;;640.00;1587.20;;;;;;5011009;28;20528;-70
2021/05/26 11:22:01;;;;;;;3.50;1.50;;;640.00;1612.80;;;;;;5010446;28;20049;-70
2021/05/26 11:24:32;;;;;;;3.22;1.30;;;640.10;1587.20;;;;;;5014127;28;20030;-74
2021/05/26 11:26:58;;;;;;;2.88;1.65;;;640.20;1587.20;;;;;;5013737;28;20072;-70
2021/05/26 11:29:38;;;;;;;2.45;1.50;;;640.30;1587.20;;;;;;5014428;28;20022;-70
2021/05/26 11:32:05;;;;;;;5.55;1.50;;;640.40;1587.20;;;;;;5013865;28;20030;-71
2021/05/26 11:34:31;;;;;;;4.22;1.50;;;640.40;1587.20;;;;;;5013924;28;20380;-74
2021/05/26 11:36:56;;;;;;;4.25;1.60;;;640.40;1612.80;;;;;;5014333;28;20022;-70
2021/05/26 11:39:30;;;;;;;3.35;1.55;;;640.30;1587.20;;;;;;5014209;28;20104;-73
2021/05/26 11:42:14;;;;;;;4.88;1.40;;;640.40;1561.60;;;;;;5013991;28;20037;-70
2021/05/26 11:44:45;;;;;;;3.42;1.50;;;640.50;1638.40;;;;;;5005005;28;20032;-71
2021/05/26 11:47:11;;;;;;;3.45;1.60;;;640.40;1561.60;;;;;;5013882;28;20037;-72
2021/05/26 11:49:40;;;;;;;3.25;1.60;;;640.60;1612.80;;;;;;5014064;28;20452;-70
2021/05/26 11:52:09;;;;;;;3.13;1.60;;;640.50;1612.80;;;;;;5014060;28;20025;-70
2021/05/26 11:54:51;;;;;;;3.85;1.65;;;640.60;1587.20;;;;;;5014029;28;20037;-71
2021/05/26 11:57:17;;;;;;;4.75;1.70;;;640.50;1587.20;;;;;;5013961;28;20424;-71
2021/05/26 11:59:52;;;;;;;4.60;1.50;;;640.60;1561.60;;;;;;5013663;28;20160;-71
2021/05/26 12:02:18;;;;;;;3.25;1.42;;;640.70;1612.80;;;;;;5013990;28;20392;-71
2021/05/26 12:04:44;;;;;;;3.40;1.50;;;640.70;1561.60;;;;;;5013767;28;20030;-71
2021/05/26 12:07:11;;;;;;;4.03;1.50;;;640.70;1536.00;;;;;;5013502;28;20136;-70
2021/05/26 12:09:36;;;;;;;2.90;1.40;;;640.50;1510.40;;;;;;5008211;28;20079;-71
2021/05/26 12:12:17;;;;;;;4.30;1.60;;;640.60;1536.00;;;;;;5013807;28;20101;-71
2021/05/26 12:14:45;;;;;;;;;;;640.50;1561.60;;;;;;5009345;28;20083;-72
2021/05/26 12:17:13;;;;;;;2.85;1.60;;;640.50;1587.20;;;;;;5013563;28;19905;-70
2021/05/26 12:19:39;;;;;;;3.38;1.70;;;640.60;1561.60;;;;;;5013586;28;20033;-71
2021/05/26 12:22:21;;;;;;;4.35;1.60;;;640.60;1587.20;;;;;;5007238;28;20045;-72
2021/05/26 12:25:01;;;;;;;3.00;1.50;;;640.70;1561.60;;;;;;5013277;28;20030;-71